Main page
METAR-TAF:

METAR-TAF

Airports :

Coventry, England

Coventry Airport

latitude: 52-22N, longitude: 001-29W, elevation: 82 m

Current weather observation

The report was made 15 hours and 28 minutes ago, at 15:50 UTC
Wind 8 kt from the East/Southeast
Temperature 25°C
Humidity 57%
Pressure 1022 hPa
Visibility 10 km or more
Few clouds at a height of 4800 ft

METAR: EGBE 251550Z 12008KT 9999 FEW048 25/16 Q1022

Time: 08:18 (07:18 UTC)

Forecast

The report was made 17 hours and 18 minutes ago, at 14:00 UTC
Forecast valid from 25 at 15 UTC to 25 at 24 UTC
Wind 7 kt from the Southeast
Visibility 10 km or more
Scattered clouds at a height of 4500 ft

TAF: EGBE 251400Z 2515/2524 13007KT 9999 SCT045

Weather observations and forecasts of more than 4000 airports (METAR and TAF reports).

The available stations are represented by yellow and red dots on the map.

Hover mouse over dot to see the name of the station.

Then click to see weather observations and forecasts.

To change the map : click on the green buttons with a black cross to zoom in, on the green button with a dash to zoom out, or on the green arrows for adjacent maps.


METAR-TAF: